sensor_id;sensor_type;location;lat;lon;timestamp;P1;durP1;ratioP1;P2;durP2;ratioP2
76098;SDS011;64828;49.956;8.636;2023-05-09T00:00:11;16.13;;;11.30;;
76098;SDS011;64828;49.956;8.636;2023-05-09T00:00:27;15.45;;;11.45;;
76098;SDS011;64828;49.956;8.636;2023-05-09T00:00:43;13.70;;;11.43;;
76098;SDS011;64828;49.956;8.636;2023-05-09T00:01:09;13.60;;;11.27;;
76098;SDS011;64828;49.956;8.636;2023-05-09T00:01:27;14.77;;;10.93;;
76098;SDS011;64828;49.956;8.636;2023-05-09T00:01:45;14.45;;;10.98;;
76098;SDS011;64828;49.956;8.636;2023-05-09T00:02:00;13.73;;;10.73;;
76098;SDS011;64828;49.956;8.636;2023-05-09T00:02:16;13.93;;;11.10;;
76098;SDS011;64828;49.956;8.636;2023-05-09T00:02:32;15.10;;;11.45;;
76098;SDS011;64828;49.956;8.636;2023-05-09T00:02:48;14.52;;;10.90;;
76098;SDS011;64828;49.956;8.636;2023-05-09T00:03:05;13.75;;;10.73;;
76098;SDS011;64828;49.956;8.636;2023-05-09T00:03:20;14.53;;;11.67;;
76098;SDS011;64828;49.956;8.636;2023-05-09T00:03:36;14.48;;;11.68;;
76098;SDS011;64828;49.956;8.636;2023-05-09T00:03:51;13.90;;;11.07;;
76098;SDS011;64828;49.956;8.636;2023-05-09T00:04:07;13.90;;;11.30;;
76098;SDS011;64828;49.956;8.636;2023-05-09T00:04:23;14.37;;;11.10;;
76098;SDS011;64828;49.956;8.636;2023-05-09T00:04:39;15.40;;;11.30;;
76098;SDS011;64828;49.956;8.636;2023-05-09T00:04:55;14.13;;;11.45;;
76098;SDS011;64828;49.956;8.636;2023-05-09T00:05:11;14.07;;;11.10;;
76098;SDS011;64828;49.956;8.636;2023-05-09T00:05:26;14.68;;;11.20;;
76098;SDS011;64828;49.956;8.636;2023-05-09T00:05:43;15.75;;;11.75;;
76098;SDS011;64828;49.956;8.636;2023-05-09T00:06:00;16.15;;;11.68;;
76098;SDS011;64828;49.956;8.636;2023-05-09T00:06:16;14.50;;;11.27;;
76098;SDS011;64828;49.956;8.636;2023-05-09T00:06:31;13.98;;;11.43;;
76098;SDS011;64828;49.956;8.636;2023-05-09T00:06:47;14.80;;;12.07;;
76098;SDS011;64828;49.956;8.636;2023-05-09T00:07:03;15.47;;;12.13;;
76098;SDS011;64828;49.956;8.636;2023-05-09T00:07:18;16.20;;;12.00;;
76098;SDS011;64828;49.956;8.636;2023-05-09T00:07:34;14.98;;;11.43;;
76098;SDS011;64828;49.956;8.636;2023-05-09T00:07:50;14.60;;;10.97;;
76098;SDS011;64828;49.956;8.636;2023-05-09T00:08:05;14.48;;;11.02;;
76098;SDS011;64828;49.956;8.636;2023-05-09T00:08:21;13.93;;;11.07;;
76098;SDS011;64828;49.956;8.636;2023-05-09T00:08:36;14.60;;;11.15;;
76098;SDS011;64828;49.956;8.636;2023-05-09T00:08:53;14.87;;;11.17;;
76098;SDS011;64828;49.956;8.636;2023-05-09T00:09:09;15.60;;;11.73;;
76098;SDS011;64828;49.956;8.636;2023-05-09T00:09:26;15.02;;;11.70;;
76098;SDS011;64828;49.956;8.636;2023-05-09T00:09:45;14.63;;;11.32;;
76098;SDS011;64828;49.956;8.636;2023-05-09T00:10:00;15.37;;;11.50;;
76098;SDS011;64828;49.956;8.636;2023-05-09T00:10:16;15.70;;;11.40;;
76098;SDS011;64828;49.956;8.636;2023-05-09T00:10:31;16.85;;;11.60;;
76098;SDS011;64828;49.956;8.636;2023-05-09T00:10:47;16.80;;;12.10;;
76098;SDS011;64828;49.956;8.636;2023-05-09T00:11:03;14.93;;;11.52;;
76098;SDS011;64828;49.956;8.636;2023-05-09T00:11:18;15.00;;;11.40;;
76098;SDS011;64828;49.956;8.636;2023-05-09T00:11:48;14.10;;;11.15;;
76098;SDS011;64828;49.956;8.636;2023-05-09T00:12:03;13.20;;;11.37;;
76098;SDS011;64828;49.956;8.636;2023-05-09T00:12:19;13.60;;;11.15;;
76098;SDS011;64828;49.956;8.636;2023-05-09T00:12:35;15.00;;;11.32;;
76098;SDS011;64828;49.956;8.636;2023-05-09T00:12:51;15.52;;;11.73;;
76098;SDS011;64828;49.956;8.636;2023-05-09T00:13:06;14.43;;;11.33;;
76098;SDS011;64828;49.956;8.636;2023-05-09T00:13:22;14.25;;;11.18;;
76098;SDS011;64828;49.956;8.636;2023-05-09T00:13:38;15.02;;;11.85;;
76098;SDS011;64828;49.956;8.636;2023-05-09T00:13:55;15.10;;;11.55;;
76098;SDS011;64828;49.956;8.636;2023-05-09T00:14:12;15.40;;;11.32;;
76098;SDS011;64828;49.956;8.636;2023-05-09T00:14:28;14.38;;;10.77;;
76098;SDS011;64828;49.956;8.636;2023-05-09T00:14:43;14.17;;;11.17;;
76098;SDS011;64828;49.956;8.636;2023-05-09T00:14:59;15.02;;;11.80;;
76098;SDS011;64828;49.956;8.636;2023-05-09T00:15:14;14.07;;;11.70;;
76098;SDS011;64828;49.956;8.636;2023-05-09T00:15:30;13.43;;;11.40;;
76098;SDS011;64828;49.956;8.636;2023-05-09T00:15:46;13.50;;;11.23;;
76098;SDS011;64828;49.956;8.636;2023-05-09T00:16:01;14.47;;;11.40;;
76098;SDS011;64828;49.956;8.636;2023-05-09T00:16:18;15.90;;;11.52;;
76098;SDS011;64828;49.956;8.636;2023-05-09T00:16:34;15.55;;;12.05;;
76098;SDS011;64828;49.956;8.636;2023-05-09T00:16:50;15.35;;;12.25;;
76098;SDS011;64828;49.956;8.636;2023-05-09T00:17:07;15.55;;;11.73;;
76098;SDS011;64828;49.956;8.636;2023-05-09T00:17:23;15.52;;;11.63;;
76098;SDS011;64828;49.956;8.636;2023-05-09T00:17:40;14.25;;;11.30;;
76098;SDS011;64828;49.956;8.636;2023-05-09T00:17:56;13.77;;;10.95;;
76098;SDS011;64828;49.956;8.636;2023-05-09T00:18:12;13.93;;;11.20;;
76098;SDS011;64828;49.956;8.636;2023-05-09T00:18:28;15.82;;;11.43;;
76098;SDS011;64828;49.956;8.636;2023-05-09T00:18:45;17.50;;;11.68;;
76098;SDS011;64828;49.956;8.636;2023-05-09T00:19:01;16.25;;;11.93;;
76098;SDS011;64828;49.956;8.636;2023-05-09T00:19:18;14.43;;;11.35;;
76098;SDS011;64828;49.956;8.636;2023-05-09T00:19:33;14.20;;;11.23;;
76098;SDS011;64828;49.956;8.636;2023-05-09T00:19:49;14.17;;;11.17;;
76098;SDS011;64828;49.956;8.636;2023-05-09T00:20:07;15.07;;;11.50;;
76098;SDS011;64828;49.956;8.636;2023-05-09T00:20:26;14.40;;;11.80;;
76098;SDS011;64828;49.956;8.636;2023-05-09T00:20:42;14.25;;;11.57;;
76098;SDS011;64828;49.956;8.636;2023-05-09T00:20:58;14.40;;;11.38;;
76098;SDS011;64828;49.956;8.636;2023-05-09T00:21:14;15.75;;;12.10;;
76098;SDS011;64828;49.956;8.636;2023-05-09T00:21:29;15.68;;;11.98;;
76098;SDS011;64828;49.956;8.636;2023-05-09T00:21:45;14.43;;;11.40;;
76098;SDS011;64828;49.956;8.636;2023-05-09T00:22:01;15.75;;;11.93;;
76098;SDS011;64828;49.956;8.636;2023-05-09T00:22:16;15.60;;;11.82;;
76098;SDS011;64828;49.956;8.636;2023-05-09T00:22:35;15.30;;;11.52;;
76098;SDS011;64828;49.956;8.636;2023-05-09T00:22:51;15.35;;;11.60;;
76098;SDS011;64828;49.956;8.636;2023-05-09T00:23:06;15.50;;;11.93;;
76098;SDS011;64828;49.956;8.636;2023-05-09T00:23:22;14.73;;;11.73;;
76098;SDS011;64828;49.956;8.636;2023-05-09T00:23:38;14.85;;;11.80;;
76098;SDS011;64828;49.956;8.636;2023-05-09T00:23:53;14.70;;;11.83;;
76098;SDS011;64828;49.956;8.636;2023-05-09T00:24:09;13.88;;;11.43;;
76098;SDS011;64828;49.956;8.636;2023-05-09T00:24:25;14.77;;;12.00;;
76098;SDS011;64828;49.956;8.636;2023-05-09T00:24:40;17.40;;;12.63;;
76098;SDS011;64828;49.956;8.636;2023-05-09T00:24:56;16.77;;;12.03;;
76098;SDS011;64828;49.956;8.636;2023-05-09T00:25:12;15.07;;;11.35;;
76098;SDS011;64828;49.956;8.636;2023-05-09T00:25:27;14.87;;;11.70;;
76098;SDS011;64828;49.956;8.636;2023-05-09T00:25:43;14.20;;;11.73;;
76098;SDS011;64828;49.956;8.636;2023-05-09T00:25:58;15.17;;;11.70;;
76098;SDS011;64828;49.956;8.636;2023-05-09T00:26:14;15.25;;;11.93;;
76098;SDS011;64828;49.956;8.636;2023-05-09T00:26:31;14.77;;;12.00;;
76098;SDS011;64828;49.956;8.636;2023-05-09T00:26:46;14.73;;;11.80;;
76098;SDS011;64828;49.956;8.636;2023-05-09T00:27:02;14.88;;;11.90;;
76098;SDS011;64828;49.956;8.636;2023-05-09T00:27:17;15.13;;;11.53;;
76098;SDS011;64828;49.956;8.636;2023-05-09T00:27:33;15.95;;;11.95;;
76098;SDS011;64828;49.956;8.636;2023-05-09T00:27:49;16.23;;;12.15;;
76098;SDS011;64828;49.956;8.636;2023-05-09T00:28:04;15.20;;;11.80;;
76098;SDS011;64828;49.956;8.636;2023-05-09T00:28:20;14.20;;;11.38;;
76098;SDS011;64828;49.956;8.636;2023-05-09T00:28:36;14.73;;;11.18;;
76098;SDS011;64828;49.956;8.636;2023-05-09T00:28:51;15.30;;;11.40;;
76098;SDS011;64828;49.956;8.636;2023-05-09T00:29:07;15.65;;;11.60;;
76098;SDS011;64828;49.956;8.636;2023-05-09T00:29:23;16.07;;;11.63;;
76098;SDS011;64828;49.956;8.636;2023-05-09T00:29:38;16.67;;;11.40;;
76098;SDS011;64828;49.956;8.636;2023-05-09T00:29:54;16.40;;;11.40;;
76098;SDS011;64828;49.956;8.636;2023-05-09T00:30:10;15.50;;;11.50;;
76098;SDS011;64828;49.956;8.636;2023-05-09T00:30:25;15.80;;;11.70;;
76098;SDS011;64828;49.956;8.636;2023-05-09T00:30:41;16.30;;;11.68;;
76098;SDS011;64828;49.956;8.636;2023-05-09T00:30:57;16.13;;;11.47;;
76098;SDS011;64828;49.956;8.636;2023-05-09T00:31:12;16.23;;;11.88;;
76098;SDS011;64828;49.956;8.636;2023-05-09T00:31:28;15.80;;;12.05;;
76098;SDS011;64828;49.956;8.636;2023-05-09T00:31:43;15.10;;;12.03;;
76098;SDS011;64828;49.956;8.636;2023-05-09T00:31:59;14.40;;;11.65;;
76098;SDS011;64828;49.956;8.636;2023-05-09T00:32:15;14.17;;;11.30;;
76098;SDS011;64828;49.956;8.636;2023-05-09T00:32:33;14.48;;;11.63;;
76098;SDS011;64828;49.956;8.636;2023-05-09T00:32:49;14.40;;;11.68;;
76098;SDS011;64828;49.956;8.636;2023-05-09T00:33:05;15.20;;;11.80;;
76098;SDS011;64828;49.956;8.636;2023-05-09T00:33:21;15.55;;;11.95;;
76098;SDS011;64828;49.956;8.636;2023-05-09T00:33:36;15.00;;;11.88;;
76098;SDS011;64828;49.956;8.636;2023-05-09T00:33:52;14.88;;;11.57;;
76098;SDS011;64828;49.956;8.636;2023-05-09T00:34:08;15.10;;;11.32;;
76098;SDS011;64828;49.956;8.636;2023-05-09T00:34:24;16.47;;;11.87;;
76098;SDS011;64828;49.956;8.636;2023-05-09T00:34:39;16.27;;;11.95;;
76098;SDS011;64828;49.956;8.636;2023-05-09T00:34:55;15.43;;;11.73;;
76098;SDS011;64828;49.956;8.636;2023-05-09T00:35:11;14.32;;;11.65;;
76098;SDS011;64828;49.956;8.636;2023-05-09T00:35:26;14.10;;;11.55;;
76098;SDS011;64828;49.956;8.636;2023-05-09T00:35:42;15.43;;;11.37;;
76098;SDS011;64828;49.956;8.636;2023-05-09T00:35:57;15.25;;;11.40;;
76098;SDS011;64828;49.956;8.636;2023-05-09T00:36:13;13.53;;;11.47;;
76098;SDS011;64828;49.956;8.636;2023-05-09T00:36:28;14.07;;;11.50;;
76098;SDS011;64828;49.956;8.636;2023-05-09T00:36:44;15.30;;;11.40;;
76098;SDS011;64828;49.956;8.636;2023-05-09T00:37:00;15.52;;;11.65;;
76098;SDS011;64828;49.956;8.636;2023-05-09T00:37:15;15.20;;;11.73;;
76098;SDS011;64828;49.956;8.636;2023-05-09T00:37:33;15.45;;;11.73;;
76098;SDS011;64828;49.956;8.636;2023-05-09T00:37:48;15.07;;;11.30;;
76098;SDS011;64828;49.956;8.636;2023-05-09T00:38:04;15.30;;;11.23;;
76098;SDS011;64828;49.956;8.636;2023-05-09T00:38:20;15.55;;;11.52;;
76098;SDS011;64828;49.956;8.636;2023-05-09T00:38:37;15.13;;;11.48;;
76098;SDS011;64828;49.956;8.636;2023-05-09T00:38:53;15.30;;;11.45;;
76098;SDS011;64828;49.956;8.636;2023-05-09T00:39:09;14.65;;;11.55;;
76098;SDS011;64828;49.956;8.636;2023-05-09T00:39:24;13.82;;;11.57;;
76098;SDS011;64828;49.956;8.636;2023-05-09T00:39:40;14.30;;;11.40;;
76098;SDS011;64828;49.956;8.636;2023-05-09T00:39:56;16.30;;;11.45;;
76098;SDS011;64828;49.956;8.636;2023-05-09T00:40:11;16.27;;;11.70;;
76098;SDS011;64828;49.956;8.636;2023-05-09T00:40:27;15.23;;;11.80;;
76098;SDS011;64828;49.956;8.636;2023-05-09T00:40:43;14.52;;;11.10;;
76098;SDS011;64828;49.956;8.636;2023-05-09T00:40:59;14.90;;;11.38;;
76098;SDS011;64828;49.956;8.636;2023-05-09T00:41:14;15.33;;;11.90;;
76098;SDS011;64828;49.956;8.636;2023-05-09T00:41:30;15.13;;;11.57;;
76098;SDS011;64828;49.956;8.636;2023-05-09T00:41:45;14.93;;;11.33;;
76098;SDS011;64828;49.956;8.636;2023-05-09T00:42:01;14.23;;;11.35;;
76098;SDS011;64828;49.956;8.636;2023-05-09T00:42:17;13.82;;;11.27;;
76098;SDS011;64828;49.956;8.636;2023-05-09T00:42:33;13.88;;;11.60;;
76098;SDS011;64828;49.956;8.636;2023-05-09T00:42:50;15.18;;;12.10;;
76098;SDS011;64828;49.956;8.636;2023-05-09T00:43:06;15.40;;;11.90;;
76098;SDS011;64828;49.956;8.636;2023-05-09T00:43:21;15.82;;;12.20;;
76098;SDS011;64828;49.956;8.636;2023-05-09T00:43:37;15.53;;;11.53;;
76098;SDS011;64828;49.956;8.636;2023-05-09T00:43:52;14.88;;;10.85;;
76098;SDS011;64828;49.956;8.636;2023-05-09T00:44:08;14.77;;;11.35;;
76098;SDS011;64828;49.956;8.636;2023-05-09T00:44:23;14.60;;;11.63;;
76098;SDS011;64828;49.956;8.636;2023-05-09T00:44:39;15.05;;;11.95;;
76098;SDS011;64828;49.956;8.636;2023-05-09T00:44:55;15.23;;;11.80;;
76098;SDS011;64828;49.956;8.636;2023-05-09T00:45:10;14.68;;;11.43;;
76098;SDS011;64828;49.956;8.636;2023-05-09T00:45:26;14.30;;;11.90;;
76098;SDS011;64828;49.956;8.636;2023-05-09T00:45:42;15.18;;;12.00;;
76098;SDS011;64828;49.956;8.636;2023-05-09T00:45:59;16.05;;;11.98;;
76098;SDS011;64828;49.956;8.636;2023-05-09T00:46:15;15.00;;;11.80;;
76098;SDS011;64828;49.956;8.636;2023-05-09T00:46:31;15.50;;;11.75;;
76098;SDS011;64828;49.956;8.636;2023-05-09T00:46:46;15.73;;;11.82;;
76098;SDS011;64828;49.956;8.636;2023-05-09T00:47:02;14.75;;;11.95;;
76098;SDS011;64828;49.956;8.636;2023-05-09T00:47:19;14.60;;;11.80;;
76098;SDS011;64828;49.956;8.636;2023-05-09T00:47:38;14.60;;;11.70;;
76098;SDS011;64828;49.956;8.636;2023-05-09T00:47:54;16.02;;;11.98;;
76098;SDS011;64828;49.956;8.636;2023-05-09T00:48:09;16.52;;;12.25;;
76098;SDS011;64828;49.956;8.636;2023-05-09T00:48:25;15.95;;;11.95;;
76098;SDS011;64828;49.956;8.636;2023-05-09T00:48:41;14.23;;;11.50;;
76098;SDS011;64828;49.956;8.636;2023-05-09T00:48:57;15.18;;;11.75;;
76098;SDS011;64828;49.956;8.636;2023-05-09T00:49:12;16.20;;;11.57;;
76098;SDS011;64828;49.956;8.636;2023-05-09T00:49:29;16.38;;;11.80;;
76098;SDS011;64828;49.956;8.636;2023-05-09T00:49:45;15.05;;;11.57;;
76098;SDS011;64828;49.956;8.636;2023-05-09T00:50:00;14.32;;;11.18;;
76098;SDS011;64828;49.956;8.636;2023-05-09T00:50:16;14.57;;;11.07;;
76098;SDS011;64828;49.956;8.636;2023-05-09T00:50:32;14.98;;;11.13;;
76098;SDS011;64828;49.956;8.636;2023-05-09T00:50:48;15.98;;;11.55;;
76098;SDS011;64828;49.956;8.636;2023-05-09T00:51:06;14.97;;;11.50;;
76098;SDS011;64828;49.956;8.636;2023-05-09T00:51:22;14.60;;;11.73;;
76098;SDS011;64828;49.956;8.636;2023-05-09T00:51:39;15.68;;;11.88;;
76098;SDS011;64828;49.956;8.636;2023-05-09T00:51:55;15.90;;;11.95;;
76098;SDS011;64828;49.956;8.636;2023-05-09T00:52:11;15.30;;;12.00;;
76098;SDS011;64828;49.956;8.636;2023-05-09T00:52:27;15.88;;;12.13;;
76098;SDS011;64828;49.956;8.636;2023-05-09T00:52:43;16.15;;;12.43;;
76098;SDS011;64828;49.956;8.636;2023-05-09T00:52:58;15.27;;;11.93;;
76098;SDS011;64828;49.956;8.636;2023-05-09T00:53:14;14.55;;;11.15;;
76098;SDS011;64828;49.956;8.636;2023-05-09T00:53:30;15.18;;;10.95;;
76098;SDS011;64828;49.956;8.636;2023-05-09T00:53:46;15.48;;;11.00;;
76098;SDS011;64828;49.956;8.636;2023-05-09T00:54:02;15.68;;;11.48;;
76098;SDS011;64828;49.956;8.636;2023-05-09T00:54:18;16.17;;;11.70;;
76098;SDS011;64828;49.956;8.636;2023-05-09T00:54:33;15.53;;;11.70;;
76098;SDS011;64828;49.956;8.636;2023-05-09T00:54:50;14.88;;;11.75;;
76098;SDS011;64828;49.956;8.636;2023-05-09T00:55:07;15.52;;;11.77;;
76098;SDS011;64828;49.956;8.636;2023-05-09T00:55:23;15.07;;;11.80;;
76098;SDS011;64828;49.956;8.636;2023-05-09T00:55:40;14.88;;;11.65;;
76098;SDS011;64828;49.956;8.636;2023-05-09T00:55:56;14.30;;;11.40;;
76098;SDS011;64828;49.956;8.636;2023-05-09T00:56:14;14.60;;;11.43;;
76098;SDS011;64828;49.956;8.636;2023-05-09T00:56:30;15.20;;;11.45;;
76098;SDS011;64828;49.956;8.636;2023-05-09T00:56:46;13.97;;;11.33;;
76098;SDS011;64828;49.956;8.636;2023-05-09T00:57:01;15.05;;;11.52;;
76098;SDS011;64828;49.956;8.636;2023-05-09T00:57:17;16.27;;;11.88;;
76098;SDS011;64828;49.956;8.636;2023-05-09T00:57:33;16.42;;;12.30;;
76098;SDS011;64828;49.956;8.636;2023-05-09T00:57:50;17.38;;;12.50;;
76098;SDS011;64828;49.956;8.636;2023-05-09T00:58:05;17.50;;;12.38;;
76098;SDS011;64828;49.956;8.636;2023-05-09T00:58:21;16.13;;;12.13;;
76098;SDS011;64828;49.956;8.636;2023-05-09T00:58:37;15.93;;;12.13;;
76098;SDS011;64828;49.956;8.636;2023-05-09T00:58:53;15.47;;;12.20;;
76098;SDS011;64828;49.956;8.636;2023-05-09T00:59:09;15.43;;;11.98;;
76098;SDS011;64828;49.956;8.636;2023-05-09T00:59:25;16.33;;;12.20;;
76098;SDS011;64828;49.956;8.636;2023-05-09T00:59:41;15.88;;;12.23;;
76098;SDS011;64828;49.956;8.636;2023-05-09T00:59:57;15.07;;;11.97;;
76098;SDS011;64828;49.956;8.636;2023-05-09T01:00:13;14.00;;;11.35;;
76098;SDS011;64828;49.956;8.636;2023-05-09T01:00:31;14.65;;;11.35;;
76098;SDS011;64828;49.956;8.636;2023-05-09T01:00:47;16.13;;;11.93;;
76098;SDS011;64828;49.956;8.636;2023-05-09T01:01:03;16.17;;;12.27;;
76098;SDS011;64828;49.956;8.636;2023-05-09T01:01:18;15.75;;;12.07;;
76098;SDS011;64828;49.956;8.636;2023-05-09T01:01:34;16.20;;;11.70;;
76098;SDS011;64828;49.956;8.636;2023-05-09T01:01:50;16.20;;;11.93;;
76098;SDS011;64828;49.956;8.636;2023-05-09T01:02:06;16.40;;;12.15;;
76098;SDS011;64828;49.956;8.636;2023-05-09T01:02:21;15.60;;;12.27;;
76098;SDS011;64828;49.956;8.636;2023-05-09T01:02:39;15.63;;;11.93;;
76098;SDS011;64828;49.956;8.636;2023-05-09T01:02:56;15.73;;;11.77;;
76098;SDS011;64828;49.956;8.636;2023-05-09T01:03:12;16.20;;;12.40;;
76098;SDS011;64828;49.956;8.636;2023-05-09T01:03:28;18.20;;;13.02;;
76098;SDS011;64828;49.956;8.636;2023-05-09T01:03:45;16.42;;;12.10;;
76098;SDS011;64828;49.956;8.636;2023-05-09T01:04:01;15.48;;;11.70;;
76098;SDS011;64828;49.956;8.636;2023-05-09T01:04:17;15.68;;;11.60;;
76098;SDS011;64828;49.956;8.636;2023-05-09T01:04:32;15.47;;;11.80;;
76098;SDS011;64828;49.956;8.636;2023-05-09T01:04:48;15.98;;;12.00;;
76098;SDS011;64828;49.956;8.636;2023-05-09T01:05:04;15.13;;;11.90;;
76098;SDS011;64828;49.956;8.636;2023-05-09T01:05:21;15.27;;;12.40;;
76098;SDS011;64828;49.956;8.636;2023-05-09T01:06:12;15.77;;;12.45;;
76098;SDS011;64828;49.956;8.636;2023-05-09T01:10:22;15.65;;;12.05;;
76098;SDS011;64828;49.956;8.636;2023-05-09T01:11:02;15.82;;;11.75;;
76098;SDS011;64828;49.956;8.636;2023-05-09T01:12:39;14.98;;;11.40;;
76098;SDS011;64828;49.956;8.636;2023-05-09T01:13:23;15.20;;;11.35;;
76098;SDS011;64828;49.956;8.636;2023-05-09T01:16:30;16.33;;;12.52;;
76098;SDS011;64828;49.956;8.636;2023-05-09T01:19:30;15.93;;;11.93;;
76098;SDS011;64828;49.956;8.636;2023-05-09T01:20:24;15.75;;;11.95;;
76098;SDS011;64828;49.956;8.636;2023-05-09T01:20:53;16.45;;;12.15;;
76098;SDS011;64828;49.956;8.636;2023-05-09T01:21:20;15.38;;;12.23;;
76098;SDS011;64828;49.956;8.636;2023-05-09T01:21:42;16.35;;;12.52;;
76098;SDS011;64828;49.956;8.636;2023-05-09T01:22:03;18.30;;;12.55;;
76098;SDS011;64828;49.956;8.636;2023-05-09T01:22:27;17.35;;;12.55;;
76098;SDS011;64828;49.956;8.636;2023-05-09T01:22:54;16.10;;;12.13;;
76098;SDS011;64828;49.956;8.636;2023-05-09T01:24:24;16.40;;;12.13;;
76098;SDS011;64828;49.956;8.636;2023-05-09T01:25:11;15.52;;;12.13;;
76098;SDS011;64828;49.956;8.636;2023-05-09T01:27:27;14.65;;;11.82;;
76098;SDS011;64828;49.956;8.636;2023-05-09T01:30:00;16.17;;;11.93;;
76098;SDS011;64828;49.956;8.636;2023-05-09T01:30:18;18.58;;;12.40;;
76098;SDS011;64828;49.956;8.636;2023-05-09T01:30:35;17.20;;;11.98;;
76098;SDS011;64828;49.956;8.636;2023-05-09T01:30:53;15.35;;;12.18;;
76098;SDS011;64828;49.956;8.636;2023-05-09T01:31:10;16.90;;;12.48;;
76098;SDS011;64828;49.956;8.636;2023-05-09T01:31:26;16.92;;;12.00;;
76098;SDS011;64828;49.956;8.636;2023-05-09T01:31:44;15.00;;;11.73;;
76098;SDS011;64828;49.956;8.636;2023-05-09T01:32:09;14.52;;;11.57;;
76098;SDS011;64828;49.956;8.636;2023-05-09T01:32:41;15.25;;;11.77;;
76098;SDS011;64828;49.956;8.636;2023-05-09T01:32:59;16.73;;;12.18;;
76098;SDS011;64828;49.956;8.636;2023-05-09T01:33:21;15.30;;;12.18;;
76098;SDS011;64828;49.956;8.636;2023-05-09T01:33:41;15.15;;;12.20;;
76098;SDS011;64828;49.956;8.636;2023-05-09T01:34:00;17.08;;;12.20;;
76098;SDS011;64828;49.956;8.636;2023-05-09T01:34:19;18.27;;;12.55;;
76098;SDS011;64828;49.956;8.636;2023-05-09T01:34:41;18.08;;;12.52;;
76098;SDS011;64828;49.956;8.636;2023-05-09T01:35:00;17.25;;;12.32;;
76098;SDS011;64828;49.956;8.636;2023-05-09T01:35:18;15.35;;;11.77;;
76098;SDS011;64828;49.956;8.636;2023-05-09T01:35:40;16.05;;;11.90;;
76098;SDS011;64828;49.956;8.636;2023-05-09T01:36:04;17.35;;;12.25;;
76098;SDS011;64828;49.956;8.636;2023-05-09T01:36:26;16.83;;;12.43;;
76098;SDS011;64828;49.956;8.636;2023-05-09T01:36:47;16.77;;;12.20;;
76098;SDS011;64828;49.956;8.636;2023-05-09T01:37:05;16.40;;;12.35;;
76098;SDS011;64828;49.956;8.636;2023-05-09T01:37:30;17.90;;;13.02;;
76098;SDS011;64828;49.956;8.636;2023-05-09T01:37:49;16.60;;;12.45;;
76098;SDS011;64828;49.956;8.636;2023-05-09T01:38:08;15.73;;;12.27;;
76098;SDS011;64828;49.956;8.636;2023-05-09T01:38:29;16.27;;;12.15;;
76098;SDS011;64828;49.956;8.636;2023-05-09T01:38:47;16.45;;;12.48;;
76098;SDS011;64828;49.956;8.636;2023-05-09T01:39:06;16.65;;;12.80;;
76098;SDS011;64828;49.956;8.636;2023-05-09T01:39:27;16.00;;;12.63;;
76098;SDS011;64828;49.956;8.636;2023-05-09T01:39:47;17.15;;;12.80;;
76098;SDS011;64828;49.956;8.636;2023-05-09T01:40:09;15.77;;;12.10;;
76098;SDS011;64828;49.956;8.636;2023-05-09T01:40:30;16.38;;;12.65;;
76098;SDS011;64828;49.956;8.636;2023-05-09T01:40:49;16.20;;;12.57;;
76098;SDS011;64828;49.956;8.636;2023-05-09T01:41:09;17.55;;;12.77;;
76098;SDS011;64828;49.956;8.636;2023-05-09T01:41:30;17.75;;;12.45;;
76098;SDS011;64828;49.956;8.636;2023-05-09T01:41:52;14.98;;;12.10;;
76098;SDS011;64828;49.956;8.636;2023-05-09T01:42:11;16.10;;;12.75;;
76098;SDS011;64828;49.956;8.636;2023-05-09T01:42:35;17.25;;;12.82;;
76098;SDS011;64828;49.956;8.636;2023-05-09T01:42:58;17.10;;;12.50;;
76098;SDS011;64828;49.956;8.636;2023-05-09T01:43:21;17.10;;;12.70;;
76098;SDS011;64828;49.956;8.636;2023-05-09T01:43:41;16.10;;;12.80;;
76098;SDS011;64828;49.956;8.636;2023-05-09T01:44:02;17.05;;;12.63;;
76098;SDS011;64828;49.956;8.636;2023-05-09T01:44:23;16.42;;;12.07;;
76098;SDS011;64828;49.956;8.636;2023-05-09T01:44:43;15.43;;;12.18;;
76098;SDS011;64828;49.956;8.636;2023-05-09T01:45:01;16.40;;;12.20;;
76098;SDS011;64828;49.956;8.636;2023-05-09T01:45:20;16.02;;;12.50;;
76098;SDS011;64828;49.956;8.636;2023-05-09T01:45:38;16.55;;;12.05;;
76098;SDS011;64828;49.956;8.636;2023-05-09T01:45:57;17.00;;;11.93;;
76098;SDS011;64828;49.956;8.636;2023-05-09T01:46:14;16.25;;;12.45;;
76098;SDS011;64828;49.956;8.636;2023-05-09T01:46:33;16.27;;;12.55;;
76098;SDS011;64828;49.956;8.636;2023-05-09T01:46:51;16.42;;;12.18;;
76098;SDS011;64828;49.956;8.636;2023-05-09T01:47:09;15.85;;;12.10;;
76098;SDS011;64828;49.956;8.636;2023-05-09T01:47:25;16.25;;;12.57;;
76098;SDS011;64828;49.956;8.636;2023-05-09T01:47:42;16.98;;;12.70;;
76098;SDS011;64828;49.956;8.636;2023-05-09T01:47:58;16.23;;;12.38;;
76098;SDS011;64828;49.956;8.636;2023-05-09T01:48:15;15.32;;;12.20;;
76098;SDS011;64828;49.956;8.636;2023-05-09T01:48:32;15.73;;;12.55;;
76098;SDS011;64828;49.956;8.636;2023-05-09T01:48:51;15.85;;;12.70;;
76098;SDS011;64828;49.956;8.636;2023-05-09T01:49:09;16.42;;;12.45;;
76098;SDS011;64828;49.956;8.636;2023-05-09T01:49:27;18.23;;;12.85;;
76098;SDS011;64828;49.956;8.636;2023-05-09T01:49:46;16.65;;;12.25;;
76098;SDS011;64828;49.956;8.636;2023-05-09T01:50:03;16.33;;;11.88;;
76098;SDS011;64828;49.956;8.636;2023-05-09T01:50:23;16.00;;;12.23;;
76098;SDS011;64828;49.956;8.636;2023-05-09T01:50:43;16.30;;;12.25;;
76098;SDS011;64828;49.956;8.636;2023-05-09T01:51:00;16.52;;;12.38;;
76098;SDS011;64828;49.956;8.636;2023-05-09T01:51:19;16.23;;;12.50;;
76098;SDS011;64828;49.956;8.636;2023-05-09T01:51:36;15.93;;;12.00;;
76098;SDS011;64828;49.956;8.636;2023-05-09T01:51:55;16.08;;;12.43;;
76098;SDS011;64828;49.956;8.636;2023-05-09T01:52:15;16.83;;;13.02;;
76098;SDS011;64828;49.956;8.636;2023-05-09T01:52:33;17.08;;;12.98;;
76098;SDS011;64828;49.956;8.636;2023-05-09T01:52:52;16.90;;;12.98;;
76098;SDS011;64828;49.956;8.636;2023-05-09T01:53:12;16.48;;;13.05;;
76098;SDS011;64828;49.956;8.636;2023-05-09T01:53:31;17.05;;;12.73;;
76098;SDS011;64828;49.956;8.636;2023-05-09T01:53:49;16.67;;;12.77;;
76098;SDS011;64828;49.956;8.636;2023-05-09T01:54:10;17.75;;;12.85;;
76098;SDS011;64828;49.956;8.636;2023-05-09T01:54:27;16.98;;;12.57;;
76098;SDS011;64828;49.956;8.636;2023-05-09T01:54:45;17.33;;;12.55;;
76098;SDS011;64828;49.956;8.636;2023-05-09T01:55:02;17.40;;;12.75;;
76098;SDS011;64828;49.956;8.636;2023-05-09T01:55:20;17.35;;;13.07;;
76098;SDS011;64828;49.956;8.636;2023-05-09T01:55:40;16.98;;;12.93;;
76098;SDS011;64828;49.956;8.636;2023-05-09T01:55:58;16.42;;;12.77;;
76098;SDS011;64828;49.956;8.636;2023-05-09T01:56:16;17.10;;;12.45;;
76098;SDS011;64828;49.956;8.636;2023-05-09T01:56:32;17.85;;;13.00;;
76098;SDS011;64828;49.956;8.636;2023-05-09T01:56:51;17.48;;;13.32;;
76098;SDS011;64828;49.956;8.636;2023-05-09T01:57:09;17.08;;;13.27;;
76098;SDS011;64828;49.956;8.636;2023-05-09T01:57:26;16.58;;;13.05;;
76098;SDS011;64828;49.956;8.636;2023-05-09T01:57:44;16.40;;;12.90;;
76098;SDS011;64828;49.956;8.636;2023-05-09T01:58:05;17.20;;;12.75;;
76098;SDS011;64828;49.956;8.636;2023-05-09T01:58:22;17.98;;;12.93;;
76098;SDS011;64828;49.956;8.636;2023-05-09T01:58:40;18.00;;;13.23;;